Terminal Aerodrome Forecast
Issued by NWS Paducah, KY

Home | Current Version | Previous Version | Text Only | Print | Product List | Glossary Off
Versions: 1 2 3 4 5 6 7 8 9 10 11 12 13 14 15 16

000
FTUS43 KPAH 261120
TAFPAH
TAF
KPAH 261120Z 2612/2712 35009KT P6SM OVC040
      TEMPO 2613/2616 -SHRA
     FM261700 36008KT P6SM BKN250
     FM270000 33003KT P6SM SKC=

USA.gov is the U.S. government's official web portal to all federal, state and local government web resources and services.